sensor_id;sensor_type;location;lat;lon;timestamp;P1;durP1;ratioP1;P2;durP2;ratioP2
22774;SDS011;11554;51.106;3.684;2023-03-23T00:00:00;5.00;;;1.90;;
22774;SDS011;11554;51.106;3.684;2023-03-23T00:05:00;3.90;;;1.80;;
22774;SDS011;11554;51.106;3.684;2023-03-23T00:10:00;3.90;;;1.80;;
22774;SDS011;11554;51.106;3.684;2023-03-23T00:15:01;3.90;;;2.10;;
22774;SDS011;11554;51.106;3.684;2023-03-23T00:20:00;3.90;;;2.10;;
22774;SDS011;11554;51.106;3.684;2023-03-23T00:25:00;2.90;;;2.00;;
22774;SDS011;11554;51.106;3.684;2023-03-23T00:30:00;2.90;;;2.00;;
22774;SDS011;11554;51.106;3.684;2023-03-23T00:35:00;4.20;;;2.40;;
22774;SDS011;11554;51.106;3.684;2023-03-23T00:40:00;4.20;;;2.40;;
22774;SDS011;11554;51.106;3.684;2023-03-23T00:45:00;4.20;;;2.60;;
22774;SDS011;11554;51.106;3.684;2023-03-23T00:50:00;4.20;;;2.60;;
22774;SDS011;11554;51.106;3.684;2023-03-23T00:55:00;4.10;;;2.20;;
22774;SDS011;11554;51.106;3.684;2023-03-23T01:00:00;4.10;;;2.20;;
22774;SDS011;11554;51.106;3.684;2023-03-23T01:05:00;4.40;;;1.90;;
22774;SDS011;11554;51.106;3.684;2023-03-23T01:10:00;4.40;;;1.90;;
22774;SDS011;11554;51.106;3.684;2023-03-23T01:15:00;3.50;;;1.90;;
22774;SDS011;11554;51.106;3.684;2023-03-23T01:20:00;3.50;;;1.90;;
22774;SDS011;11554;51.106;3.684;2023-03-23T01:25:00;3.50;;;1.70;;
22774;SDS011;11554;51.106;3.684;2023-03-23T01:30:00;3.50;;;1.70;;
22774;SDS011;11554;51.106;3.684;2023-03-23T01:35:00;2.70;;;1.60;;
22774;SDS011;11554;51.106;3.684;2023-03-23T01:40:00;2.70;;;1.60;;
22774;SDS011;11554;51.106;3.684;2023-03-23T01:50:00;2.60;;;1.70;;
22774;SDS011;11554;51.106;3.684;2023-03-23T01:55:00;2.90;;;1.40;;
22774;SDS011;11554;51.106;3.684;2023-03-23T02:00:04;2.90;;;1.40;;
22774;SDS011;11554;51.106;3.684;2023-03-23T02:05:06;4.70;;;1.70;;
22774;SDS011;11554;51.106;3.684;2023-03-23T02:10:00;4.70;;;1.70;;
22774;SDS011;11554;51.106;3.684;2023-03-23T02:15:00;2.80;;;1.40;;
22774;SDS011;11554;51.106;3.684;2023-03-23T02:20:10;2.80;;;1.40;;
22774;SDS011;11554;51.106;3.684;2023-03-23T02:25:17;4.20;;;1.30;;
22774;SDS011;11554;51.106;3.684;2023-03-23T02:30:11;4.20;;;1.30;;
22774;SDS011;11554;51.106;3.684;2023-03-23T02:35:03;3.40;;;1.30;;
22774;SDS011;11554;51.106;3.684;2023-03-23T02:40:04;3.40;;;1.30;;
22774;SDS011;11554;51.106;3.684;2023-03-23T02:45:03;5.60;;;1.40;;
22774;SDS011;11554;51.106;3.684;2023-03-23T02:50:01;5.60;;;1.40;;
22774;SDS011;11554;51.106;3.684;2023-03-23T02:55:02;6.90;;;1.60;;
22774;SDS011;11554;51.106;3.684;2023-03-23T03:00:00;6.90;;;1.60;;
22774;SDS011;11554;51.106;3.684;2023-03-23T03:05:05;6.60;;;1.70;;
22774;SDS011;11554;51.106;3.684;2023-03-23T03:10:04;6.60;;;1.70;;
22774;SDS011;11554;51.106;3.684;2023-03-23T03:15:08;6.50;;;1.60;;
22774;SDS011;11554;51.106;3.684;2023-03-23T03:20:03;6.50;;;1.60;;
22774;SDS011;11554;51.106;3.684;2023-03-23T03:25:01;5.00;;;1.20;;
22774;SDS011;11554;51.106;3.684;2023-03-23T03:30:03;5.00;;;1.20;;
22774;SDS011;11554;51.106;3.684;2023-03-23T03:35:00;5.40;;;1.60;;
22774;SDS011;11554;51.106;3.684;2023-03-23T03:40:00;5.40;;;1.60;;
22774;SDS011;11554;51.106;3.684;2023-03-23T03:45:00;5.20;;;1.60;;
22774;SDS011;11554;51.106;3.684;2023-03-23T03:50:00;5.20;;;1.60;;
22774;SDS011;11554;51.106;3.684;2023-03-23T03:55:00;4.80;;;1.60;;
22774;SDS011;11554;51.106;3.684;2023-03-23T04:00:00;4.80;;;1.60;;
22774;SDS011;11554;51.106;3.684;2023-03-23T04:05:00;5.20;;;1.30;;
22774;SDS011;11554;51.106;3.684;2023-03-23T04:10:00;5.20;;;1.30;;
22774;SDS011;11554;51.106;3.684;2023-03-23T04:15:00;7.00;;;1.70;;
22774;SDS011;11554;51.106;3.684;2023-03-23T04:20:00;7.00;;;1.70;;
22774;SDS011;11554;51.106;3.684;2023-03-23T04:25:01;7.70;;;1.80;;
22774;SDS011;11554;51.106;3.684;2023-03-23T04:30:00;7.70;;;1.80;;
22774;SDS011;11554;51.106;3.684;2023-03-23T04:35:00;7.30;;;1.70;;
22774;SDS011;11554;51.106;3.684;2023-03-23T04:40:00;7.30;;;1.70;;
22774;SDS011;11554;51.106;3.684;2023-03-23T04:45:00;10.50;;;2.20;;
22774;SDS011;11554;51.106;3.684;2023-03-23T04:50:00;10.50;;;2.20;;
22774;SDS011;11554;51.106;3.684;2023-03-23T04:55:00;10.20;;;1.90;;
22774;SDS011;11554;51.106;3.684;2023-03-23T05:00:00;10.20;;;1.90;;
22774;SDS011;11554;51.106;3.684;2023-03-23T05:05:00;10.60;;;2.00;;
22774;SDS011;11554;51.106;3.684;2023-03-23T05:10:00;10.60;;;2.00;;
22774;SDS011;11554;51.106;3.684;2023-03-23T05:15:01;8.20;;;1.90;;
22774;SDS011;11554;51.106;3.684;2023-03-23T05:20:01;8.20;;;1.90;;
22774;SDS011;11554;51.106;3.684;2023-03-23T05:25:00;7.10;;;1.90;;
22774;SDS011;11554;51.106;3.684;2023-03-23T05:30:00;7.10;;;1.90;;
22774;SDS011;11554;51.106;3.684;2023-03-23T05:35:01;8.90;;;2.10;;
22774;SDS011;11554;51.106;3.684;2023-03-23T05:40:00;8.90;;;2.10;;
22774;SDS011;11554;51.106;3.684;2023-03-23T05:45:00;7.90;;;2.00;;
22774;SDS011;11554;51.106;3.684;2023-03-23T05:50:01;7.90;;;2.00;;
22774;SDS011;11554;51.106;3.684;2023-03-23T05:55:01;7.20;;;1.80;;
22774;SDS011;11554;51.106;3.684;2023-03-23T06:00:00;7.20;;;1.80;;
22774;SDS011;11554;51.106;3.684;2023-03-23T06:05:00;8.40;;;1.70;;
22774;SDS011;11554;51.106;3.684;2023-03-23T06:10:00;8.40;;;1.70;;
22774;SDS011;11554;51.106;3.684;2023-03-23T06:15:00;7.40;;;1.70;;
22774;SDS011;11554;51.106;3.684;2023-03-23T06:20:00;7.40;;;1.70;;
22774;SDS011;11554;51.106;3.684;2023-03-23T06:25:00;7.40;;;1.50;;
22774;SDS011;11554;51.106;3.684;2023-03-23T06:30:00;7.40;;;1.50;;
22774;SDS011;11554;51.106;3.684;2023-03-23T06:35:00;6.80;;;1.20;;
22774;SDS011;11554;51.106;3.684;2023-03-23T06:40:00;6.80;;;1.20;;
22774;SDS011;11554;51.106;3.684;2023-03-23T06:45:01;9.40;;;1.50;;
22774;SDS011;11554;51.106;3.684;2023-03-23T06:50:00;9.40;;;1.50;;
22774;SDS011;11554;51.106;3.684;2023-03-23T06:55:00;6.60;;;1.50;;
22774;SDS011;11554;51.106;3.684;2023-03-23T07:00:00;6.60;;;1.50;;
22774;SDS011;11554;51.106;3.684;2023-03-23T07:05:00;5.80;;;1.10;;
22774;SDS011;11554;51.106;3.684;2023-03-23T07:10:00;5.80;;;1.10;;
22774;SDS011;11554;51.106;3.684;2023-03-23T07:15:00;4.40;;;1.10;;
22774;SDS011;11554;51.106;3.684;2023-03-23T07:20:00;4.40;;;1.10;;
22774;SDS011;11554;51.106;3.684;2023-03-23T07:25:00;6.00;;;1.20;;
22774;SDS011;11554;51.106;3.684;2023-03-23T07:30:00;6.00;;;1.20;;
22774;SDS011;11554;51.106;3.684;2023-03-23T07:35:00;7.20;;;1.30;;
22774;SDS011;11554;51.106;3.684;2023-03-23T07:40:00;7.20;;;1.30;;
22774;SDS011;11554;51.106;3.684;2023-03-23T07:45:00;4.80;;;1.20;;
22774;SDS011;11554;51.106;3.684;2023-03-23T07:50:00;4.80;;;1.20;;
22774;SDS011;11554;51.106;3.684;2023-03-23T07:55:00;9.20;;;1.70;;
22774;SDS011;11554;51.106;3.684;2023-03-23T08:00:00;9.20;;;1.70;;
22774;SDS011;11554;51.106;3.684;2023-03-23T08:05:00;6.50;;;1.60;;
22774;SDS011;11554;51.106;3.684;2023-03-23T08:10:00;6.50;;;1.60;;
22774;SDS011;11554;51.106;3.684;2023-03-23T08:15:00;6.10;;;1.30;;
22774;SDS011;11554;51.106;3.684;2023-03-23T08:20:01;6.10;;;1.30;;
22774;SDS011;11554;51.106;3.684;2023-03-23T08:25:00;7.60;;;1.60;;
22774;SDS011;11554;51.106;3.684;2023-03-23T08:30:00;7.60;;;1.60;;
22774;SDS011;11554;51.106;3.684;2023-03-23T08:35:00;7.80;;;1.60;;
22774;SDS011;11554;51.106;3.684;2023-03-23T08:40:00;7.80;;;1.60;;
22774;SDS011;11554;51.106;3.684;2023-03-23T08:45:00;8.30;;;1.60;;
22774;SDS011;11554;51.106;3.684;2023-03-23T08:50:01;8.30;;;1.60;;
22774;SDS011;11554;51.106;3.684;2023-03-23T08:55:00;11.70;;;2.10;;
22774;SDS011;11554;51.106;3.684;2023-03-23T09:00:00;11.70;;;2.10;;
22774;SDS011;11554;51.106;3.684;2023-03-23T09:05:00;8.90;;;2.00;;
22774;SDS011;11554;51.106;3.684;2023-03-23T09:10:00;8.90;;;2.00;;
22774;SDS011;11554;51.106;3.684;2023-03-23T09:15:00;11.40;;;2.40;;
22774;SDS011;11554;51.106;3.684;2023-03-23T09:20:00;11.40;;;2.40;;
22774;SDS011;11554;51.106;3.684;2023-03-23T09:25:00;6.50;;;1.50;;
22774;SDS011;11554;51.106;3.684;2023-03-23T09:30:00;6.50;;;1.50;;
22774;SDS011;11554;51.106;3.684;2023-03-23T09:35:00;6.50;;;1.30;;
22774;SDS011;11554;51.106;3.684;2023-03-23T09:40:00;6.50;;;1.30;;
22774;SDS011;11554;51.106;3.684;2023-03-23T09:45:10;7.30;;;1.60;;
22774;SDS011;11554;51.106;3.684;2023-03-23T09:50:06;7.30;;;1.60;;
22774;SDS011;11554;51.106;3.684;2023-03-23T09:55:00;7.50;;;1.50;;
22774;SDS011;11554;51.106;3.684;2023-03-23T10:00:05;7.50;;;1.50;;
22774;SDS011;11554;51.106;3.684;2023-03-23T10:05:18;7.70;;;1.80;;
22774;SDS011;11554;51.106;3.684;2023-03-23T10:10:01;7.70;;;1.80;;
22774;SDS011;11554;51.106;3.684;2023-03-23T10:15:07;8.80;;;1.90;;
22774;SDS011;11554;51.106;3.684;2023-03-23T10:20:17;8.80;;;1.90;;
22774;SDS011;11554;51.106;3.684;2023-03-23T10:25:07;8.50;;;2.10;;
22774;SDS011;11554;51.106;3.684;2023-03-23T10:30:10;8.50;;;2.10;;
22774;SDS011;11554;51.106;3.684;2023-03-23T10:35:03;8.70;;;1.90;;
22774;SDS011;11554;51.106;3.684;2023-03-23T10:40:01;8.70;;;1.90;;
22774;SDS011;11554;51.106;3.684;2023-03-23T10:45:12;10.60;;;1.80;;
22774;SDS011;11554;51.106;3.684;2023-03-23T10:50:03;10.60;;;1.80;;
22774;SDS011;11554;51.106;3.684;2023-03-23T10:55:04;9.80;;;2.00;;
22774;SDS011;11554;51.106;3.684;2023-03-23T11:00:03;9.80;;;2.00;;
22774;SDS011;11554;51.106;3.684;2023-03-23T11:05:03;8.70;;;2.00;;
22774;SDS011;11554;51.106;3.684;2023-03-23T11:10:07;8.70;;;2.00;;
22774;SDS011;11554;51.106;3.684;2023-03-23T11:15:16;8.60;;;2.10;;
22774;SDS011;11554;51.106;3.684;2023-03-23T11:20:10;8.60;;;2.10;;
22774;SDS011;11554;51.106;3.684;2023-03-23T11:25:03;8.30;;;2.10;;
22774;SDS011;11554;51.106;3.684;2023-03-23T11:30:09;8.30;;;2.10;;
22774;SDS011;11554;51.106;3.684;2023-03-23T11:35:02;11.90;;;3.00;;
22774;SDS011;11554;51.106;3.684;2023-03-23T11:40:02;11.90;;;3.00;;
22774;SDS011;11554;51.106;3.684;2023-03-23T11:45:14;10.50;;;2.30;;
22774;SDS011;11554;51.106;3.684;2023-03-23T11:50:08;10.50;;;2.30;;
22774;SDS011;11554;51.106;3.684;2023-03-23T11:55:07;13.20;;;2.40;;
22774;SDS011;11554;51.106;3.684;2023-03-23T12:00:00;13.20;;;2.40;;
22774;SDS011;11554;51.106;3.684;2023-03-23T12:05:18;9.40;;;2.60;;
22774;SDS011;11554;51.106;3.684;2023-03-23T12:10:10;9.40;;;2.60;;
22774;SDS011;11554;51.106;3.684;2023-03-23T12:15:07;10.50;;;2.50;;
22774;SDS011;11554;51.106;3.684;2023-03-23T12:20:08;10.50;;;2.50;;
22774;SDS011;11554;51.106;3.684;2023-03-23T12:25:14;11.60;;;2.80;;
22774;SDS011;11554;51.106;3.684;2023-03-23T12:30:13;11.60;;;2.80;;
22774;SDS011;11554;51.106;3.684;2023-03-23T12:35:14;11.60;;;2.50;;
22774;SDS011;11554;51.106;3.684;2023-03-23T12:40:09;11.60;;;2.50;;
22774;SDS011;11554;51.106;3.684;2023-03-23T12:45:07;14.50;;;3.20;;
22774;SDS011;11554;51.106;3.684;2023-03-23T12:50:05;14.50;;;3.20;;
22774;SDS011;11554;51.106;3.684;2023-03-23T12:55:02;12.00;;;2.50;;
22774;SDS011;11554;51.106;3.684;2023-03-23T13:00:06;12.00;;;2.50;;
22774;SDS011;11554;51.106;3.684;2023-03-23T13:05:04;13.00;;;2.60;;
22774;SDS011;11554;51.106;3.684;2023-03-23T13:10:04;13.00;;;2.60;;
22774;SDS011;11554;51.106;3.684;2023-03-23T13:15:06;11.50;;;2.80;;
22774;SDS011;11554;51.106;3.684;2023-03-23T13:25:02;14.80;;;2.80;;
22774;SDS011;11554;51.106;3.684;2023-03-23T13:30:00;14.80;;;2.80;;
22774;SDS011;11554;51.106;3.684;2023-03-23T13:35:01;11.70;;;2.80;;
22774;SDS011;11554;51.106;3.684;2023-03-23T13:40:18;11.70;;;2.80;;
22774;SDS011;11554;51.106;3.684;2023-03-23T13:45:18;12.00;;;2.90;;
22774;SDS011;11554;51.106;3.684;2023-03-23T13:50:03;12.00;;;2.90;;
22774;SDS011;11554;51.106;3.684;2023-03-23T13:55:18;12.50;;;2.90;;
22774;SDS011;11554;51.106;3.684;2023-03-23T14:00:11;12.50;;;2.90;;
22774;SDS011;11554;51.106;3.684;2023-03-23T14:05:09;9.60;;;2.40;;
22774;SDS011;11554;51.106;3.684;2023-03-23T14:15:02;10.60;;;2.50;;
22774;SDS011;11554;51.106;3.684;2023-03-23T14:20:00;10.60;;;2.50;;
22774;SDS011;11554;51.106;3.684;2023-03-23T14:25:02;9.80;;;2.20;;
22774;SDS011;11554;51.106;3.684;2023-03-23T14:30:02;9.80;;;2.20;;
22774;SDS011;11554;51.106;3.684;2023-03-23T14:35:12;8.90;;;2.30;;
22774;SDS011;11554;51.106;3.684;2023-03-23T14:40:00;8.90;;;2.30;;
22774;SDS011;11554;51.106;3.684;2023-03-23T14:45:01;7.60;;;2.20;;
22774;SDS011;11554;51.106;3.684;2023-03-23T14:50:03;7.60;;;2.20;;
22774;SDS011;11554;51.106;3.684;2023-03-23T14:55:11;9.50;;;2.00;;
22774;SDS011;11554;51.106;3.684;2023-03-23T15:00:01;9.50;;;2.00;;
22774;SDS011;11554;51.106;3.684;2023-03-23T15:05:03;8.90;;;2.20;;
22774;SDS011;11554;51.106;3.684;2023-03-23T15:10:01;8.90;;;2.20;;
22774;SDS011;11554;51.106;3.684;2023-03-23T15:15:03;9.10;;;2.40;;
22774;SDS011;11554;51.106;3.684;2023-03-23T15:20:07;9.10;;;2.40;;
22774;SDS011;11554;51.106;3.684;2023-03-23T15:25:08;10.00;;;2.70;;
22774;SDS011;11554;51.106;3.684;2023-03-23T15:30:13;10.00;;;2.70;;
22774;SDS011;11554;51.106;3.684;2023-03-23T15:35:04;10.70;;;2.50;;
22774;SDS011;11554;51.106;3.684;2023-03-23T15:40:00;10.70;;;2.50;;
22774;SDS011;11554;51.106;3.684;2023-03-23T15:50:04;9.80;;;2.30;;
22774;SDS011;11554;51.106;3.684;2023-03-23T15:55:00;12.00;;;2.60;;
22774;SDS011;11554;51.106;3.684;2023-03-23T16:00:00;12.00;;;2.60;;
22774;SDS011;11554;51.106;3.684;2023-03-23T16:05:00;8.80;;;2.00;;
22774;SDS011;11554;51.106;3.684;2023-03-23T16:10:00;8.80;;;2.00;;
22774;SDS011;11554;51.106;3.684;2023-03-23T16:15:00;8.70;;;2.50;;
22774;SDS011;11554;51.106;3.684;2023-03-23T16:20:00;8.70;;;2.50;;
22774;SDS011;11554;51.106;3.684;2023-03-23T16:25:00;12.20;;;3.20;;
22774;SDS011;11554;51.106;3.684;2023-03-23T16:30:00;12.20;;;3.20;;
22774;SDS011;11554;51.106;3.684;2023-03-23T16:35:00;9.80;;;2.50;;
22774;SDS011;11554;51.106;3.684;2023-03-23T16:40:01;9.80;;;2.50;;
22774;SDS011;11554;51.106;3.684;2023-03-23T16:45:00;10.10;;;2.60;;
22774;SDS011;11554;51.106;3.684;2023-03-23T16:50:00;10.10;;;2.60;;
22774;SDS011;11554;51.106;3.684;2023-03-23T16:55:00;8.90;;;2.10;;
22774;SDS011;11554;51.106;3.684;2023-03-23T17:00:00;8.90;;;2.10;;
22774;SDS011;11554;51.106;3.684;2023-03-23T17:05:01;9.70;;;2.30;;
22774;SDS011;11554;51.106;3.684;2023-03-23T17:10:00;9.70;;;2.30;;
22774;SDS011;11554;51.106;3.684;2023-03-23T17:15:01;9.50;;;2.20;;
22774;SDS011;11554;51.106;3.684;2023-03-23T17:20:00;9.50;;;2.20;;
22774;SDS011;11554;51.106;3.684;2023-03-23T17:25:00;11.50;;;2.70;;
22774;SDS011;11554;51.106;3.684;2023-03-23T17:30:00;11.50;;;2.70;;
22774;SDS011;11554;51.106;3.684;2023-03-23T17:35:00;8.50;;;2.20;;
22774;SDS011;11554;51.106;3.684;2023-03-23T17:40:00;8.50;;;2.20;;
22774;SDS011;11554;51.106;3.684;2023-03-23T17:45:00;14.50;;;3.20;;
22774;SDS011;11554;51.106;3.684;2023-03-23T17:50:00;14.50;;;3.20;;
22774;SDS011;11554;51.106;3.684;2023-03-23T17:55:00;14.00;;;2.90;;
22774;SDS011;11554;51.106;3.684;2023-03-23T18:00:00;14.00;;;2.90;;
22774;SDS011;11554;51.106;3.684;2023-03-23T18:05:00;11.30;;;2.90;;
22774;SDS011;11554;51.106;3.684;2023-03-23T18:10:00;11.30;;;2.90;;
22774;SDS011;11554;51.106;3.684;2023-03-23T18:15:00;15.10;;;3.30;;
22774;SDS011;11554;51.106;3.684;2023-03-23T18:20:00;15.10;;;3.30;;
22774;SDS011;11554;51.106;3.684;2023-03-23T18:25:00;12.10;;;3.40;;
22774;SDS011;11554;51.106;3.684;2023-03-23T18:30:00;12.10;;;3.40;;
22774;SDS011;11554;51.106;3.684;2023-03-23T18:35:00;16.30;;;3.50;;
22774;SDS011;11554;51.106;3.684;2023-03-23T18:40:00;16.30;;;3.50;;
22774;SDS011;11554;51.106;3.684;2023-03-23T18:45:00;17.40;;;3.90;;
22774;SDS011;11554;51.106;3.684;2023-03-23T18:50:00;17.40;;;3.90;;
22774;SDS011;11554;51.106;3.684;2023-03-23T18:55:00;16.10;;;3.60;;
22774;SDS011;11554;51.106;3.684;2023-03-23T19:00:00;16.10;;;3.60;;
22774;SDS011;11554;51.106;3.684;2023-03-23T19:05:00;14.80;;;3.50;;
22774;SDS011;11554;51.106;3.684;2023-03-23T19:10:01;14.80;;;3.50;;
22774;SDS011;11554;51.106;3.684;2023-03-23T19:15:00;14.30;;;3.90;;
22774;SDS011;11554;51.106;3.684;2023-03-23T19:20:00;14.30;;;3.90;;
22774;SDS011;11554;51.106;3.684;2023-03-23T19:25:00;13.40;;;3.80;;
22774;SDS011;11554;51.106;3.684;2023-03-23T19:30:00;13.40;;;3.80;;
22774;SDS011;11554;51.106;3.684;2023-03-23T19:35:00;12.10;;;3.60;;
22774;SDS011;11554;51.106;3.684;2023-03-23T19:40:00;12.10;;;3.60;;
22774;SDS011;11554;51.106;3.684;2023-03-23T19:45:00;11.70;;;3.80;;
22774;SDS011;11554;51.106;3.684;2023-03-23T19:50:00;11.70;;;3.80;;
22774;SDS011;11554;51.106;3.684;2023-03-23T19:55:00;9.00;;;3.30;;
22774;SDS011;11554;51.106;3.684;2023-03-23T20:00:00;9.00;;;3.30;;
22774;SDS011;11554;51.106;3.684;2023-03-23T20:05:00;12.10;;;3.40;;
22774;SDS011;11554;51.106;3.684;2023-03-23T20:10:00;12.10;;;3.40;;
22774;SDS011;11554;51.106;3.684;2023-03-23T20:15:00;10.40;;;3.40;;
22774;SDS011;11554;51.106;3.684;2023-03-23T20:20:00;10.40;;;3.40;;
22774;SDS011;11554;51.106;3.684;2023-03-23T20:25:01;9.60;;;2.90;;
22774;SDS011;11554;51.106;3.684;2023-03-23T20:30:01;9.60;;;2.90;;
22774;SDS011;11554;51.106;3.684;2023-03-23T20:35:00;9.20;;;3.00;;
22774;SDS011;11554;51.106;3.684;2023-03-23T20:40:01;9.20;;;3.00;;
22774;SDS011;11554;51.106;3.684;2023-03-23T20:45:01;8.40;;;3.10;;
22774;SDS011;11554;51.106;3.684;2023-03-23T20:50:00;8.40;;;3.10;;
22774;SDS011;11554;51.106;3.684;2023-03-23T20:55:00;8.30;;;2.50;;
22774;SDS011;11554;51.106;3.684;2023-03-23T21:00:00;8.30;;;2.50;;
22774;SDS011;11554;51.106;3.684;2023-03-23T21:05:00;9.60;;;2.70;;
22774;SDS011;11554;51.106;3.684;2023-03-23T21:10:01;9.60;;;2.70;;
22774;SDS011;11554;51.106;3.684;2023-03-23T21:15:00;9.60;;;3.10;;
22774;SDS011;11554;51.106;3.684;2023-03-23T21:20:00;9.60;;;3.10;;
22774;SDS011;11554;51.106;3.684;2023-03-23T21:25:00;8.30;;;2.90;;
22774;SDS011;11554;51.106;3.684;2023-03-23T21:30:01;8.30;;;2.90;;
22774;SDS011;11554;51.106;3.684;2023-03-23T21:35:00;5.40;;;2.50;;
22774;SDS011;11554;51.106;3.684;2023-03-23T21:40:00;5.40;;;2.50;;
22774;SDS011;11554;51.106;3.684;2023-03-23T21:45:00;7.50;;;2.50;;
22774;SDS011;11554;51.106;3.684;2023-03-23T21:50:00;7.50;;;2.50;;
22774;SDS011;11554;51.106;3.684;2023-03-23T21:55:01;6.20;;;2.20;;
22774;SDS011;11554;51.106;3.684;2023-03-23T22:00:00;6.20;;;2.20;;
22774;SDS011;11554;51.106;3.684;2023-03-23T22:05:00;6.10;;;1.90;;
22774;SDS011;11554;51.106;3.684;2023-03-23T22:10:00;6.10;;;1.90;;
22774;SDS011;11554;51.106;3.684;2023-03-23T22:15:00;6.80;;;2.30;;
22774;SDS011;11554;51.106;3.684;2023-03-23T22:20:00;6.80;;;2.30;;
22774;SDS011;11554;51.106;3.684;2023-03-23T22:25:00;5.60;;;2.00;;
22774;SDS011;11554;51.106;3.684;2023-03-23T22:30:00;5.60;;;2.00;;
22774;SDS011;11554;51.106;3.684;2023-03-23T22:35:00;6.30;;;2.20;;
22774;SDS011;11554;51.106;3.684;2023-03-23T22:40:00;6.30;;;2.20;;
22774;SDS011;11554;51.106;3.684;2023-03-23T22:45:00;7.90;;;2.90;;
22774;SDS011;11554;51.106;3.684;2023-03-23T22:50:00;7.90;;;2.90;;
22774;SDS011;11554;51.106;3.684;2023-03-23T22:55:00;8.40;;;3.30;;
22774;SDS011;11554;51.106;3.684;2023-03-23T23:00:00;8.40;;;3.30;;
22774;SDS011;11554;51.106;3.684;2023-03-23T23:05:00;6.90;;;2.90;;
22774;SDS011;11554;51.106;3.684;2023-03-23T23:10:00;6.90;;;2.90;;
22774;SDS011;11554;51.106;3.684;2023-03-23T23:15:02;8.70;;;2.90;;
22774;SDS011;11554;51.106;3.684;2023-03-23T23:20:01;8.70;;;2.90;;
22774;SDS011;11554;51.106;3.684;2023-03-23T23:25:00;5.40;;;2.00;;
22774;SDS011;11554;51.106;3.684;2023-03-23T23:30:00;5.40;;;2.00;;
22774;SDS011;11554;51.106;3.684;2023-03-23T23:35:01;5.10;;;2.10;;
22774;SDS011;11554;51.106;3.684;2023-03-23T23:40:00;5.10;;;2.10;;
22774;SDS011;11554;51.106;3.684;2023-03-23T23:45:01;5.00;;;2.10;;
22774;SDS011;11554;51.106;3.684;2023-03-23T23:50:00;5.00;;;2.10;;
22774;SDS011;11554;51.106;3.684;2023-03-23T23:55:00;4.10;;;1.70;;
